Time;durP1;ratioP1;P1;durP2;ratioP2;P2;SDS_P1;SDS_P2;PMS_P1;PMS_P2;Temp;Humidity;BMP_temperature;BMP_pressure;BME280_temperature;BME280_humidity;BME280_pressure;Samples;Min_cycle;Max_cycle;Signal;HPM_P1;HPM_P2
2021/01/15 00:35:04;;;;;;;22.40;8.40;;;-4.70;99.90;;;;;;4844353;29;20238;-96
2021/01/15 00:37:33;;;;;;;20.37;10.10;;;-3.30;99.90;;;;;;4831060;29;20320;-96
2021/01/15 00:40:07;;;;;;;18.80;10.10;;;-4.50;99.90;;;;;;4860271;29;20185;-95
2021/01/15 00:42:35;;;;;;;20.30;9.10;;;-3.00;99.90;;;;;;4860132;29;20193;-95
2021/01/15 00:45:04;;;;;;;21.43;11.33;;;-3.10;99.90;;;;;;4858918;29;20183;-96
2021/01/15 00:50:54;;;;;;;22.73;10.97;;;-1.70;99.90;;;;;;4851026;29;20189;-96
2021/01/15 00:53:43;;;;;;;;;;;;;;;;;;;;;
2021/01/15 01:22:25;;;;;;;32.53;14.63;;;-5.00;99.90;;;;;;4878962;29;20250;-96
2021/01/15 01:25:19;;;;;;;20.07;12.07;;;-4.10;99.90;;;;;;4852689;29;20202;-96
2021/01/15 01:28:01;;;;;;;;;;;;;;;;;;;;;
2021/01/15 01:38:55;;;;;;;26.53;13.20;;;-5.60;99.90;;;;;;4860432;29;20193;-96
2021/01/15 01:41:26;;;;;;;31.60;14.57;;;-5.00;99.90;;;;;;4867655;29;20192;-96
2021/01/15 01:47:29;;;;;;;24.35;12.30;;;-5.50;99.90;;;;;;5829463;23;20602;31
2021/01/15 01:50:20;;;;;;;41.45;16.50;;;-5.70;99.90;;;;;;4398276;23;20456;31
2021/01/15 01:52:56;;;;;;;25.30;12.67;;;-5.60;99.90;;;;;;4845933;29;20200;-96
2021/01/15 01:55:46;;;;;;;30.23;12.93;;;-4.90;99.90;;;;;;4826584;29;20254;-96
2021/01/15 01:58:16;;;;;;;40.23;17.63;;;-5.30;99.90;;;;;;4846637;29;20195;-96
2021/01/15 02:00:44;;;;;;;25.83;11.80;;;-4.10;99.90;;;;;;4842793;29;20230;-96
2021/01/15 02:03:30;;;;;;;;;;;;;;;;;;;;;
2021/01/15 02:06:03;;;;;;;30.50;11.03;;;-5.40;99.90;;;;;;4845738;29;20253;-96
2021/01/15 02:08:34;;;;;;;42.37;15.90;;;-5.20;99.90;;;;;;4833819;29;20194;-95
2021/01/15 02:16:19;;;;;;;28.40;13.07;;;-5.90;99.90;;;;;;4881982;29;20267;-96
2021/01/15 02:18:54;;;;;;;22.37;9.97;;;-4.80;99.90;;;;;;4874688;29;20186;-96
2021/01/15 02:21:45;;;;;;;24.00;11.33;;;-3.20;99.90;;;;;;4898104;29;20206;-96
2021/01/15 02:24:34;;;;;;;25.03;11.93;;;-6.40;99.90;;;;;;4867602;29;20192;-96
2021/01/15 02:35:10;;;;;;;20.00;10.73;;;-6.00;99.90;;;;;;5162664;23;20248;-96
2021/01/15 02:38:02;;;;;;;30.60;12.57;;;-6.10;99.90;;;;;;4853355;29;20231;-96
2021/01/15 02:40:41;;;;;;;35.77;12.40;;;-6.10;99.90;;;;;;4853281;29;20188;-96
2021/01/15 02:43:08;;;;;;;19.03;10.37;;;-3.90;99.90;;;;;;4853079;29;20188;-96
2021/01/15 02:45:34;;;;;;;24.47;11.87;;;-6.40;99.90;;;;;;4858261;29;20276;-96
2021/01/15 02:48:03;;;;;;;15.87;9.27;;;-4.60;99.90;;;;;;4856212;29;20197;-96
2021/01/15 02:50:30;;;;;;;18.23;10.43;;;-3.10;99.90;;;;;;4871915;29;20197;-95
2021/01/15 02:52:59;;;;;;;16.73;8.10;;;-5.30;99.90;;;;;;4871999;29;20193;-94
2021/01/15 02:55:25;;;;;;;18.30;9.70;;;-5.40;99.90;;;;;;4903277;23;20263;-93
2021/01/15 02:57:51;;;;;;;17.80;9.67;;;-4.50;99.90;;;;;;4890272;29;20204;-94
2021/01/15 03:00:24;;;;;;;13.63;7.73;;;-6.60;99.90;;;;;;4890346;29;20176;-96
2021/01/15 03:03:19;;;;;;;21.67;10.30;;;-6.60;99.90;;;;;;4888195;29;20202;-96
2021/01/15 03:06:06;;;;;;;17.30;7.93;;;-6.80;99.90;;;;;;4867508;29;20191;-95
2021/01/15 03:08:33;;;;;;;25.80;10.23;;;-5.20;99.90;;;;;;4866755;29;20183;-95
2021/01/15 03:11:03;;;;;;;18.30;8.77;;;-5.30;99.90;;;;;;4867960;29;20280;-96
2021/01/15 03:13:29;;;;;;;16.53;9.23;;;-5.10;99.90;;;;;;4870251;29;20716;-96
2021/01/15 03:16:02;;;;;;;20.63;9.47;;;-5.40;99.90;;;;;;4868490;29;20210;-96
2021/01/15 03:18:30;;;;;;;16.77;8.80;;;-4.70;99.90;;;;;;4869849;29;20235;-95
2021/01/15 03:21:00;;;;;;;21.17;9.27;;;-4.90;99.90;;;;;;4869946;29;20185;-95
2021/01/15 03:23:28;;;;;;;19.37;9.57;;;-4.60;99.90;;;;;;4870075;29;20190;-95
2021/01/15 03:25:55;;;;;;;20.13;10.27;;;-5.50;99.90;;;;;;4870511;29;20211;-96
2021/01/15 03:28:21;;;;;;;17.63;8.73;;;-5.60;99.90;;;;;;4868286;29;20186;-96
2021/01/15 03:30:47;;;;;;;20.93;11.50;;;-6.80;99.90;;;;;;4868067;29;20195;-95
2021/01/15 03:33:13;;;;;;;19.77;10.73;;;-4.60;99.90;;;;;;4868204;29;20188;-96
2021/01/15 03:35:39;;;;;;;19.03;8.60;;;-5.00;99.90;;;;;;4867057;29;20697;-95
2021/01/15 03:38:07;;;;;;;17.63;8.83;;;-5.50;99.90;;;;;;4866893;29;20272;-96
2021/01/15 03:40:35;;;;;;;15.47;9.27;;;-6.60;99.90;;;;;;4866855;29;20193;-96
2021/01/15 03:43:09;;;;;;;18.37;8.80;;;-5.00;99.90;;;;;;4867035;29;20186;-95
2021/01/15 03:45:35;;;;;;;14.57;8.20;;;-5.20;99.90;;;;;;4868545;29;20196;-90
2021/01/15 03:50:44;;;;;;;15.83;9.13;;;-7.40;99.90;;;;;;5572745;23;20285;-96
2021/01/15 03:53:25;;;;;;;23.67;12.43;;;-7.60;99.90;;;;;;5381682;23;20682;-96
2021/01/15 03:56:01;;;;;;;21.13;11.77;;;-7.40;99.90;;;;;;3356422;23;20433;31
2021/01/15 03:58:42;;;;;;;17.87;10.63;;;-7.60;99.90;;;;;;4817034;29;20259;-96
2021/01/15 04:01:09;;;;;;;21.27;11.30;;;;;;;;;;4820268;29;20180;-92
2021/01/15 04:03:34;;;;;;;18.20;10.13;;;-7.60;99.90;;;;;;4826321;29;20184;-96
2021/01/15 04:06:00;;;;;;;15.67;8.50;;;-7.70;99.90;;;;;;4826123;29;20248;-94
2021/01/15 04:08:26;;;;;;;17.90;9.17;;;-6.10;99.90;;;;;;4825282;29;20189;-93
2021/01/15 04:10:54;;;;;;;21.30;11.10;;;-5.50;99.90;;;;;;4826969;29;20215;-92
2021/01/15 04:13:21;;;;;;;20.73;10.47;;;-7.30;99.90;;;;;;4828083;29;20276;-96
2021/01/15 04:15:46;;;;;;;18.90;10.77;;;-5.20;99.90;;;;;;4829588;29;20280;-94
2021/01/15 04:18:13;;;;;;;16.77;8.97;;;-8.00;99.90;;;;;;4894861;23;20254;-94
2021/01/15 04:20:39;;;;;;;27.83;14.03;;;-6.90;99.90;;;;;;4866043;29;20268;-94
2021/01/15 04:23:05;;;;;;;21.57;10.83;;;-6.10;99.90;;;;;;4832490;29;20195;-93
2021/01/15 04:25:30;;;;;;;19.17;9.07;;;-7.00;99.90;;;;;;4846512;29;20183;-94
2021/01/15 04:27:56;;;;;;;16.27;8.50;;;-5.80;99.90;;;;;;4846632;29;20565;-95
2021/01/15 04:30:22;;;;;;;19.37;9.57;;;-6.00;99.90;;;;;;4831755;29;20665;-94
2021/01/15 04:32:49;;;;;;;17.00;9.03;;;-7.20;99.90;;;;;;4847102;29;20572;-94
2021/01/15 04:35:20;;;;;;;25.57;9.73;;;-6.10;99.90;;;;;;4846574;29;20545;-93
2021/01/15 04:37:50;;;;;;;13.33;8.73;;;-5.60;99.90;;;;;;4846355;29;20198;-94
2021/01/15 04:40:16;;;;;;;20.70;10.90;;;-6.10;99.90;;;;;;4846904;29;20191;-93
2021/01/15 04:42:46;;;;;;;27.53;10.67;;;-7.60;99.90;;;;;;4862851;29;20711;-93
2021/01/15 04:45:14;;;;;;;27.53;10.90;;;-6.00;99.90;;;;;;4846795;29;20189;-95
2021/01/15 04:47:47;;;;;;;14.93;7.57;;;-7.50;99.90;;;;;;4847538;29;20191;-94
2021/01/15 04:50:15;;;;;;;16.97;7.73;;;-7.50;99.90;;;;;;4846905;29;20186;-95
2021/01/15 04:52:49;;;;;;;20.70;11.03;;;-5.60;99.90;;;;;;4846180;29;20186;-94
2021/01/15 04:55:23;;;;;;;22.27;9.17;;;-5.90;99.90;;;;;;4869261;29;20183;-93
2021/01/15 04:57:51;;;;;;;28.50;12.43;;;-6.40;99.90;;;;;;4861826;29;20258;-93
2021/01/15 05:00:21;;;;;;;23.83;9.73;;;-4.90;99.90;;;;;;4858851;29;20180;-93
2021/01/15 05:02:51;;;;;;;21.23;9.30;;;-7.60;99.90;;;;;;4865889;29;20188;-92
2021/01/15 05:05:24;;;;;;;20.00;10.80;;;-5.40;99.90;;;;;;4864884;29;20211;-93
2021/01/15 05:07:56;;;;;;;23.70;11.03;;;-4.60;99.90;;;;;;4884958;29;20171;-94
2021/01/15 05:10:28;;;;;;;21.77;11.33;;;-5.20;99.90;;;;;;4885723;29;20168;-94
2021/01/15 05:12:55;;;;;;;20.87;10.33;;;-7.50;99.90;;;;;;4887343;29;20167;-95
2021/01/15 05:15:25;;;;;;;18.50;9.37;;;-7.50;99.90;;;;;;4887505;29;20180;-93
2021/01/15 05:17:51;;;;;;;19.17;10.30;;;-4.80;99.90;;;;;;4865374;29;20195;-92
2021/01/15 05:20:22;;;;;;;16.30;9.73;;;-5.10;99.90;;;;;;4848351;29;20699;-92
2021/01/15 05:22:48;;;;;;;23.13;10.27;;;-7.70;99.90;;;;;;4859646;29;20163;-96
2021/01/15 05:25:14;;;;;;;20.90;9.57;;;-6.10;99.90;;;;;;4877825;29;20180;-94
2021/01/15 05:27:43;;;;;;;19.33;10.20;;;-5.90;99.90;;;;;;4866762;29;20244;-95
2021/01/15 05:30:21;;;;;;;18.07;8.67;;;-7.30;99.90;;;;;;4885902;29;20204;-95
2021/01/15 05:32:54;;;;;;;26.10;11.43;;;-6.90;99.90;;;;;;4864953;29;20292;-95
2021/01/15 05:35:40;;;;;;;16.77;8.10;;;-5.50;99.90;;;;;;4995814;24;20242;-95
2021/01/15 05:38:07;;;;;;;27.87;12.37;;;-7.50;99.90;;;;;;4874308;23;20190;-94
2021/01/15 05:40:46;;;;;;;23.23;11.30;;;-7.00;99.90;;;;;;4836073;29;20239;-95
2021/01/15 05:43:23;;;;;;;15.53;9.30;;;-7.20;99.90;;;;;;4837179;29;20223;-96
2021/01/15 05:46:17;;;;;;;29.27;13.73;;;-6.70;99.90;;;;;;4852930;29;20193;-95
2021/01/15 05:48:48;;;;;;;22.53;10.80;;;-5.80;99.90;;;;;;4869702;29;20185;-88
2021/01/15 05:51:34;;;;;;;23.50;10.67;;;-7.90;99.90;;;;;;4838575;29;20212;-88
2021/01/15 05:54:01;;;;;;;21.60;9.87;;;-7.60;99.90;;;;;;4823730;29;20190;-87
2021/01/15 05:56:43;;;;;;;18.90;9.47;;;-5.60;99.90;;;;;;4840339;29;20250;-88
2021/01/15 05:59:20;;;;;;;28.20;11.30;;;-7.40;99.90;;;;;;4833743;29;20180;-96
2021/01/15 06:01:51;;;;;;;28.27;11.67;;;-7.50;99.90;;;;;;4852480;29;20243;-93
2021/01/15 06:04:40;;;;;;;28.50;10.97;;;-6.10;99.90;;;;;;4840510;29;20204;-94
2021/01/15 06:07:11;;;;;;;26.93;12.37;;;-6.70;99.90;;;;;;4835619;29;20200;-95
2021/01/15 06:09:41;;;;;;;26.87;11.93;;;-5.50;99.90;;;;;;4832975;29;20189;-94
2021/01/15 06:12:09;;;;;;;26.77;12.50;;;-7.50;99.90;;;;;;4973400;23;20313;-95
2021/01/15 06:14:52;;;;;;;24.73;10.70;;;-7.30;99.90;;;;;;4847043;29;20192;-95
2021/01/15 06:17:40;;;;;;;26.03;11.53;;;-6.40;99.90;;;;;;4850763;29;20270;-95
2021/01/15 06:20:08;;;;;;;19.77;9.83;;;-5.10;99.90;;;;;;4850653;29;20661;-96
2021/01/15 06:22:44;;;;;;;26.07;10.90;;;-7.50;99.90;;;;;;4836631;29;20195;-95
2021/01/15 06:25:31;;;;;;;24.23;11.17;;;-6.10;99.90;;;;;;4822727;29;20195;-95
2021/01/15 06:28:02;;;;;;;17.53;9.57;;;-8.40;99.90;;;;;;4849695;29;20187;-94
2021/01/15 06:30:33;;;;;;;19.30;8.93;;;-7.70;99.90;;;;;;4837215;29;20187;-93
2021/01/15 06:33:15;;;;;;;22.40;9.47;;;-7.40;99.90;;;;;;4832444;29;20217;-94
2021/01/15 06:35:42;;;;;;;20.67;8.83;;;-7.50;99.90;;;;;;4834932;29;20231;-87
2021/01/15 06:38:16;;;;;;;22.57;10.60;;;-4.10;99.90;;;;;;4838080;29;20179;-91
2021/01/15 06:40:44;;;;;;;25.53;11.13;;;-4.90;99.90;;;;;;4846687;29;20192;-88
2021/01/15 06:43:11;;;;;;;24.30;11.67;;;-5.70;99.90;;;;;;4845652;29;20210;-87
2021/01/15 06:45:45;;;;;;;23.03;10.97;;;-5.20;99.90;;;;;;4834385;29;20212;-91
2021/01/15 06:48:13;;;;;;;24.43;11.33;;;-7.20;99.90;;;;;;4836031;29;20617;-92
2021/01/15 06:50:40;;;;;;;21.20;10.40;;;-5.60;99.90;;;;;;4837063;29;20267;-95
2021/01/15 06:53:26;;;;;;;25.47;10.43;;;-5.60;99.90;;;;;;4870058;29;20190;-93
2021/01/15 06:55:57;;;;;;;26.07;11.23;;;-5.70;99.90;;;;;;4840156;29;20693;-91
2021/01/15 06:58:26;;;;;;;32.40;13.27;;;-7.40;99.90;;;;;;4834991;29;20180;-91
2021/01/15 07:01:16;;;;;;;29.30;11.90;;;-7.40;99.90;;;;;;4838003;29;20230;-94
2021/01/15 07:03:57;;;;;;;37.77;14.53;;;-7.40;99.90;;;;;;4834640;29;20211;-95
2021/01/15 07:06:31;;;;;;;33.37;13.70;;;-7.30;99.90;;;;;;4839592;29;20193;-95
2021/01/15 07:08:59;;;;;;;27.77;12.40;;;-7.30;99.90;;;;;;4834413;29;20207;-94
2021/01/15 07:11:27;;;;;;;22.33;12.57;;;-7.30;99.90;;;;;;4838915;29;20715;-94
2021/01/15 07:14:01;;;;;;;27.17;13.57;;;-4.50;99.90;;;;;;4838274;29;20192;-95
2021/01/15 07:16:30;;;;;;;20.30;8.40;;;-7.20;99.90;;;;;;4861189;29;20231;-92
2021/01/15 07:19:19;;;;;;;24.47;12.27;;;-7.50;99.90;;;;;;4825550;29;20264;-93
2021/01/15 07:22:09;;;;;;;26.87;10.00;;;-5.20;99.90;;;;;;4834116;29;20659;-94
2021/01/15 07:24:39;;;;;;;23.03;11.17;;;-4.50;99.90;;;;;;4817352;29;20193;-94
2021/01/15 07:27:06;;;;;;;23.90;12.03;;;-4.20;99.90;;;;;;4846152;29;20279;-95
2021/01/15 07:29:40;;;;;;;27.40;12.07;;;-6.00;99.90;;;;;;4851773;29;20188;-94
2021/01/15 07:32:24;;;;;;;29.00;11.63;;;-5.00;99.90;;;;;;4849958;29;20608;-94
2021/01/15 07:34:54;;;;;;;34.87;12.20;;;-7.00;99.90;;;;;;4831790;29;20188;-95
2021/01/15 07:37:21;;;;;;;31.83;14.07;;;-6.70;99.90;;;;;;4838351;29;20220;-95
2021/01/15 07:40:06;;;;;;;26.67;13.10;;;-5.00;99.90;;;;;;4854343;29;20185;-94
2021/01/15 07:42:41;;;;;;;32.70;14.37;;;-6.60;99.90;;;;;;4861817;29;20823;-93
2021/01/15 07:45:07;;;;;;;29.07;13.80;;;-6.70;99.90;;;;;;4864887;29;20348;-95
2021/01/15 07:47:37;;;;;;;26.27;11.40;;;-6.80;99.90;;;;;;4862410;29;20247;-95
2021/01/15 07:50:06;;;;;;;22.37;10.63;;;-5.20;99.90;;;;;;4844186;29;20191;-94
2021/01/15 07:52:33;;;;;;;32.33;13.57;;;-6.50;99.90;;;;;;4846893;29;20192;-95
2021/01/15 07:55:02;;;;;;;33.17;13.00;;;-6.70;99.90;;;;;;4855938;29;20192;-91
2021/01/15 07:57:30;;;;;;;22.30;9.83;;;-5.40;99.90;;;;;;4836093;29;20251;-93
2021/01/15 07:59:56;;;;;;;33.37;13.07;;;-4.60;99.90;;;;;;4860487;29;20246;-92
2021/01/15 08:02:22;;;;;;;24.77;12.20;;;-5.90;99.90;;;;;;4840467;29;20192;-94
2021/01/15 08:04:48;;;;;;;21.67;10.67;;;-6.90;99.90;;;;;;4840638;29;20199;-93
2021/01/15 08:07:20;;;;;;;23.30;10.97;;;-6.50;99.90;;;;;;4833500;29;20730;-93
2021/01/15 08:09:45;;;;;;;23.47;11.37;;;-5.70;99.90;;;;;;4827940;29;20217;-94
2021/01/15 08:12:11;;;;;;;18.87;8.93;;;-6.30;99.90;;;;;;4811978;29;20748;-95
2021/01/15 08:14:38;;;;;;;19.80;10.20;;;-6.30;99.90;;;;;;4812481;29;20695;-92
2021/01/15 08:17:06;;;;;;;29.90;11.60;;;-5.30;99.90;;;;;;4828403;29;20227;-94
2021/01/15 08:19:36;;;;;;;26.87;11.43;;;-4.60;99.90;;;;;;4831692;29;20195;-93
2021/01/15 08:22:02;;;;;;;21.77;9.77;;;-4.60;99.90;;;;;;4829741;29;20196;-92
2021/01/15 08:24:28;;;;;;;22.27;8.73;;;-6.20;99.90;;;;;;4815632;29;20666;-91
2021/01/15 08:26:57;;;;;;;22.40;11.50;;;-5.30;99.90;;;;;;4811716;29;20269;-91
2021/01/15 08:29:28;;;;;;;21.70;10.33;;;-6.10;99.90;;;;;;4846474;29;20703;-92
2021/01/15 08:31:59;;;;;;;16.47;9.77;;;-6.00;99.90;;;;;;4825807;29;20288;-93
2021/01/15 08:34:35;;;;;;;21.60;10.73;;;-6.00;99.90;;;;;;4862016;29;20196;-91
2021/01/15 08:37:03;;;;;;;29.67;11.77;;;-5.90;99.90;;;;;;4862169;29;20224;-91
2021/01/15 08:39:54;;;;;;;26.67;11.57;;;-4.40;99.90;;;;;;4860935;29;20252;-90
2021/01/15 08:42:20;;;;;;;22.07;10.07;;;-5.00;99.90;;;;;;4847532;29;20215;-92
2021/01/15 08:44:50;;;;;;;30.00;12.20;;;-5.80;99.90;;;;;;4860429;29;20596;-90
2021/01/15 08:47:18;;;;;;;34.70;12.93;;;-5.70;99.90;;;;;;4857409;29;20250;-92
2021/01/15 08:49:59;;;;;;;24.97;11.57;;;-4.30;99.90;;;;;;4849664;29;20201;-88
2021/01/15 08:52:29;;;;;;;28.27;11.83;;;-5.40;99.90;;;;;;4845325;29;20215;-89
2021/01/15 08:54:55;;;;;;;46.00;17.50;;;-5.70;99.90;;;;;;4873724;29;20189;-89
2021/01/15 08:57:26;;;;;;;29.27;13.60;;;-5.50;99.90;;;;;;4858691;29;20250;-92
2021/01/15 08:59:51;;;;;;;27.87;10.67;;;-3.10;99.90;;;;;;4848032;29;20193;-92
2021/01/15 09:02:18;;;;;;;32.10;13.23;;;-2.90;99.90;;;;;;4817814;29;20202;-90
2021/01/15 09:04:50;;;;;;;30.27;13.43;;;-4.30;99.90;;;;;;4855910;29;20663;-92
2021/01/15 09:07:17;;;;;;;29.20;14.57;;;-4.60;99.90;;;;;;4833272;29;20201;-93
2021/01/15 09:09:43;;;;;;;28.90;13.87;;;-5.30;99.90;;;;;;4814783;29;20234;-91
2021/01/15 09:12:10;;;;;;;30.23;15.43;;;-5.20;99.90;;;;;;4841362;29;20238;-91
2021/01/15 09:14:36;;;;;;;28.00;14.70;;;-5.10;99.90;;;;;;4824932;29;20199;-92
2021/01/15 09:17:03;;;;;;;27.80;12.93;;;-3.90;99.90;;;;;;4841225;29;20222;-91
2021/01/15 09:19:29;;;;;;;32.70;14.43;;;-5.20;99.90;;;;;;4809476;29;20205;-91
2021/01/15 09:22:00;;;;;;;30.90;16.10;;;-5.20;99.90;;;;;;4824748;29;20265;-92
2021/01/15 09:24:28;;;;;;;21.60;10.43;;;-5.10;99.90;;;;;;4825052;29;20189;-92
2021/01/15 09:27:00;;;;;;;31.47;15.27;;;-3.00;99.90;;;;;;4841295;29;20197;-91
2021/01/15 09:29:26;;;;;;;36.13;15.97;;;-5.20;99.90;;;;;;4825905;29;20195;-92
2021/01/15 09:31:52;;;;;;;26.53;13.57;;;-5.10;99.90;;;;;;4842352;29;20202;-92
2021/01/15 09:34:19;;;;;;;34.93;17.00;;;-5.20;99.90;;;;;;4842282;29;20241;-92
2021/01/15 09:36:47;;;;;;;37.00;16.50;;;-5.10;99.90;;;;;;4841711;29;20218;-91
2021/01/15 09:39:13;;;;;;;35.07;16.30;;;-3.10;99.90;;;;;;4807330;29;20195;-90
2021/01/15 09:41:49;;;;;;;33.73;17.37;;;-4.90;99.90;;;;;;4830264;29;20269;-90
2021/01/15 09:44:16;;;;;;;23.50;11.17;;;-4.70;99.90;;;;;;4826979;29;20257;-92
2021/01/15 09:46:42;;;;;;;35.57;15.03;;;-2.50;99.90;;;;;;4826069;29;20202;-92
2021/01/15 09:49:08;;;;;;;37.00;15.47;;;-2.40;99.90;;;;;;4844031;29;20191;-91
2021/01/15 09:51:34;;;;;;;25.40;13.17;;;-3.40;99.90;;;;;;4846196;29;20652;-93
2021/01/15 09:53:59;;;;;;;25.87;13.20;;;-3.00;99.90;;;;;;4852939;29;20192;-91
2021/01/15 09:56:42;;;;;;;32.77;13.53;;;-4.10;99.90;;;;;;4809740;29;20237;-90
2021/01/15 09:59:13;;;;;;;31.67;13.47;;;-4.60;99.90;;;;;;4825210;29;20202;-88
2021/01/15 10:01:39;;;;;;;25.40;12.40;;;-4.60;99.90;;;;;;4842737;29;20641;-89
2021/01/15 10:04:05;;;;;;;23.83;12.07;;;-3.10;99.90;;;;;;4842262;29;20270;-91
2021/01/15 10:06:32;;;;;;;35.93;17.77;;;-4.80;99.90;;;;;;4841847;29;20719;-88
2021/01/15 10:08:59;;;;;;;23.93;13.93;;;-3.30;99.90;;;;;;4839866;29;20584;-89
2021/01/15 10:11:28;;;;;;;27.47;14.00;;;-3.30;99.90;;;;;;4810923;29;20242;-88
2021/01/15 10:13:59;;;;;;;22.83;12.00;;;-4.50;99.90;;;;;;4811834;29;20187;-90
2021/01/15 10:16:25;;;;;;;30.47;13.60;;;-4.40;99.90;;;;;;4840490;29;20298;-89
2021/01/15 10:18:52;;;;;;;25.80;11.53;;;-2.50;99.90;;;;;;4833807;29;20198;-89
2021/01/15 10:21:30;;;;;;;23.10;12.00;;;-4.00;99.90;;;;;;4831540;29;20249;-91
2021/01/15 10:23:56;;;;;;;29.20;12.63;;;-4.10;99.90;;;;;;4851502;29;20191;-91
2021/01/15 10:26:32;;;;;;;26.83;11.83;;;-3.90;99.90;;;;;;4842182;29;20199;-93
2021/01/15 10:29:02;;;;;;;22.10;10.77;;;-3.70;99.90;;;;;;4840686;29;20191;-90
2021/01/15 10:31:30;;;;;;;15.47;8.73;;;-3.80;99.90;;;;;;4830459;29;20182;-93
2021/01/15 10:33:57;;;;;;;18.37;10.90;;;-1.20;99.90;;;;;;4860535;29;20238;-89
2021/01/15 10:36:23;;;;;;;23.83;10.93;;;-3.70;99.90;;;;;;4842169;29;20695;-91
2021/01/15 10:38:52;;;;;;;18.23;9.87;;;-1.40;99.90;;;;;;4842754;29;20179;-91
2021/01/15 10:41:33;;;;;;;20.37;9.90;;;-2.30;99.90;;;;;;4798012;29;20194;-89
2021/01/15 10:44:00;;;;;;;20.63;10.80;;;-0.70;99.90;;;;;;4855445;29;20183;-89
2021/01/15 10:46:33;;;;;;;23.67;9.90;;;-3.50;99.90;;;;;;4821817;29;20211;-90
2021/01/15 10:49:02;;;;;;;8.53;4.73;;;-2.40;99.90;;;;;;4856215;29;20189;-89
2021/01/15 10:51:27;;;;;;;16.87;9.67;;;-3.60;99.90;;;;;;4855095;29;20195;-89
2021/01/15 10:53:53;;;;;;;21.17;10.63;;;-3.60;99.90;;;;;;4827009;29;20651;-89
2021/01/15 10:56:19;;;;;;;21.47;9.67;;;-1.80;99.90;;;;;;4828235;29;20219;-89
2021/01/15 10:58:44;;;;;;;22.70;9.87;;;-3.70;99.90;;;;;;4854903;29;20277;-89
2021/01/15 11:01:10;;;;;;;23.53;10.20;;;-2.70;99.90;;;;;;4859356;29;20193;-91
2021/01/15 11:03:36;;;;;;;20.63;10.00;;;-3.70;99.90;;;;;;4836667;29;20228;-89
2021/01/15 11:06:01;;;;;;;20.57;9.90;;;-2.70;99.90;;;;;;4810160;29;20198;-92
2021/01/15 11:08:27;;;;;;;21.57;10.10;;;-2.00;99.90;;;;;;4820220;29;20720;-89
2021/01/15 11:10:52;;;;;;;23.10;10.97;;;-2.40;99.90;;;;;;4832830;29;20592;-90
2021/01/15 11:13:18;;;;;;;21.80;10.40;;;-3.90;99.90;;;;;;4840737;29;20246;-90
2021/01/15 11:15:44;;;;;;;21.03;9.87;;;-3.80;99.90;;;;;;4823478;29;20203;-89
2021/01/15 11:18:11;;;;;;;20.43;9.30;;;-2.20;99.90;;;;;;4840228;29;20198;-91
2021/01/15 11:20:37;;;;;;;14.13;7.67;;;-3.70;99.90;;;;;;4834230;29;20190;-90
2021/01/15 11:23:02;;;;;;;17.33;9.03;;;-3.40;99.90;;;;;;4856112;29;20214;-89
2021/01/15 11:25:28;;;;;;;16.30;8.87;;;-2.60;99.90;;;;;;4857102;29;20202;-89
2021/01/15 11:27:53;;;;;;;21.57;10.13;;;-3.70;99.90;;;;;;4828788;29;20182;-88
2021/01/15 11:30:20;;;;;;;18.87;9.37;;;-3.70;99.90;;;;;;4824043;29;20251;-88
2021/01/15 11:32:46;;;;;;;17.63;7.73;;;-3.60;99.90;;;;;;4829404;29;20534;-89
2021/01/15 11:35:13;;;;;;;14.13;6.53;;;-3.50;99.90;;;;;;4840842;29;20205;-89
2021/01/15 11:37:38;;;;;;;18.97;8.60;;;-3.60;99.90;;;;;;4845300;29;20219;-89
2021/01/15 11:40:08;;;;;;;19.20;8.13;;;-3.60;99.90;;;;;;4822157;29;20213;-87
2021/01/15 11:42:34;;;;;;;15.87;8.30;;;-3.60;99.90;;;;;;4843273;29;20331;-89
2021/01/15 11:45:00;;;;;;;15.07;7.50;;;-2.20;99.90;;;;;;4854447;29;20218;-89
2021/01/15 11:47:26;;;;;;;18.30;8.97;;;-3.50;99.90;;;;;;4825846;29;20191;-89
2021/01/15 11:49:52;;;;;;;16.80;7.87;;;-2.50;99.90;;;;;;4831907;29;20195;-89
2021/01/15 11:52:18;;;;;;;24.23;8.97;;;-1.60;99.90;;;;;;4837070;29;20191;-91
2021/01/15 11:54:44;;;;;;;19.87;10.03;;;-3.00;99.90;;;;;;4815450;29;20220;-91
2021/01/15 11:57:10;;;;;;;20.97;9.70;;;-1.60;99.90;;;;;;4855726;29;20211;-90
2021/01/15 11:59:36;;;;;;;22.20;9.70;;;-1.00;99.90;;;;;;4830537;29;20251;-88
2021/01/15 12:02:01;;;;;;;19.43;8.00;;;-1.00;99.90;;;;;;4843275;29;20203;-85
2021/01/15 12:04:27;;;;;;;16.83;8.63;;;-1.10;99.90;;;;;;4843394;29;20202;-88
2021/01/15 12:06:54;;;;;;;17.70;8.50;;;-3.20;99.90;;;;;;4878374;29;20197;-92
2021/01/15 12:09:20;;;;;;;15.50;6.87;;;-3.30;99.90;;;;;;4874004;29;20248;-88
2021/01/15 12:11:46;;;;;;;21.37;8.27;;;-1.80;99.90;;;;;;4829669;29;20246;-92
2021/01/15 12:14:12;;;;;;;16.50;9.10;;;-2.80;99.90;;;;;;4837512;29;20195;-90
2021/01/15 12:16:39;;;;;;;19.27;9.10;;;-2.30;99.90;;;;;;4834431;29;20226;-93
2021/01/15 12:19:07;;;;;;;17.60;8.97;;;-3.10;99.90;;;;;;4873565;29;20196;-91
2021/01/15 12:21:36;;;;;;;19.37;9.17;;;-1.90;99.90;;;;;;4849484;29;20196;-92
2021/01/15 12:24:03;;;;;;;21.30;9.77;;;-3.30;99.90;;;;;;4854180;29;20231;-91
2021/01/15 12:26:38;;;;;;;14.50;7.40;;;-3.30;99.90;;;;;;4836217;29;20215;-92
2021/01/15 12:29:04;;;;;;;23.33;11.03;;;-1.70;99.90;;;;;;4837488;29;20186;-91
2021/01/15 12:31:29;;;;;;;18.23;9.83;;;-1.30;99.90;;;;;;4821222;29;20663;-93
2021/01/15 12:33:55;;;;;;;21.13;11.33;;;-1.70;99.90;;;;;;4799268;29;20549;-90
2021/01/15 12:36:21;;;;;;;18.03;9.17;;;-2.00;99.90;;;;;;4852945;29;20234;-90
2021/01/15 12:38:47;;;;;;;21.53;9.03;;;-0.40;99.90;;;;;;4836173;29;20202;-91
2021/01/15 12:41:12;;;;;;;12.00;6.30;;;-3.10;99.90;;;;;;4838686;29;20197;-91
2021/01/15 12:43:40;;;;;;;18.00;9.10;;;-3.10;99.90;;;;;;4805483;29;20196;-88
2021/01/15 12:46:10;;;;;;;20.37;9.33;;;-2.40;99.90;;;;;;4836222;29;20203;-89
2021/01/15 12:48:36;;;;;;;22.70;10.47;;;-1.50;99.90;;;;;;4808366;29;20194;-90
2021/01/15 12:51:02;;;;;;;24.63;10.03;;;-2.20;99.90;;;;;;4822857;29;20282;-89
2021/01/15 12:53:27;;;;;;;23.87;9.77;;;-3.40;99.90;;;;;;4842905;29;20232;-93
2021/01/15 12:55:53;;;;;;;21.23;9.70;;;-2.70;99.90;;;;;;4835447;29;20244;-91
2021/01/15 12:58:19;;;;;;;22.03;9.13;;;-3.40;99.90;;;;;;4833625;29;20199;-91
2021/01/15 13:00:47;;;;;;;20.37;9.60;;;-1.30;99.90;;;;;;4841989;29;20196;-93
2021/01/15 13:03:12;;;;;;;24.13;9.73;;;-3.50;99.90;;;;;;4823172;29;20181;-92
2021/01/15 13:05:38;;;;;;;21.10;10.07;;;-2.90;99.90;;;;;;4824690;29;20191;-96
2021/01/15 13:08:05;;;;;;;17.60;9.97;;;-3.30;99.90;;;;;;4826606;29;20188;-91
2021/01/15 13:10:32;;;;;;;22.67;10.03;;;-3.30;99.90;;;;;;4836205;29;20194;-91
2021/01/15 13:12:58;;;;;;;22.80;10.30;;;-2.70;99.90;;;;;;4830661;29;20242;-91
2021/01/15 13:15:24;;;;;;;19.33;9.20;;;-3.40;99.90;;;;;;4822152;29;20282;-92
2021/01/15 13:17:57;;;;;;;23.10;11.07;;;-2.60;99.90;;;;;;4812895;29;20637;-93
2021/01/15 13:20:25;;;;;;;21.87;10.13;;;-3.50;99.90;;;;;;4836872;29;20633;-92
2021/01/15 13:23:09;;;;;;;20.60;8.57;;;-3.00;99.90;;;;;;4826246;29;20187;-91
2021/01/15 13:25:36;;;;;;;26.17;10.50;;;-3.50;99.90;;;;;;4837411;29;20648;-92
2021/01/15 13:28:06;;;;;;;22.43;9.33;;;-1.00;99.90;;;;;;4829755;29;20183;-91
2021/01/15 13:30:39;;;;;;;21.53;9.30;;;-3.30;99.90;;;;;;4843748;29;20184;-91
2021/01/15 13:33:06;;;;;;;22.27;11.67;;;-1.10;99.90;;;;;;4822100;29;20192;-91
2021/01/15 13:35:32;;;;;;;18.53;9.27;;;-3.50;99.90;;;;;;4802797;29;20207;-90
2021/01/15 13:37:59;;;;;;;22.23;9.33;;;-1.80;99.90;;;;;;4840134;29;20227;-90
2021/01/15 13:40:25;;;;;;;13.63;7.00;;;-0.60;99.90;;;;;;4821886;29;20323;-92
2021/01/15 13:42:58;;;;;;;16.57;7.77;;;-3.40;99.90;;;;;;4852526;29;20215;-91
2021/01/15 13:45:24;;;;;;;15.23;7.33;;;-1.10;99.90;;;;;;4829974;29;20198;-92
2021/01/15 13:47:53;;;;;;;19.70;8.83;;;-1.50;99.90;;;;;;4838962;29;20261;-92
2021/01/15 13:50:24;;;;;;;9.70;5.53;;;-0.50;99.90;;;;;;4809520;29;20199;-89
2021/01/15 13:52:54;;;;;;;25.50;13.00;;;-1.90;99.90;;;;;;4841803;29;20193;-91
2021/01/15 13:55:20;;;;;;;19.67;9.77;;;-5.50;99.90;;;;;;4831773;29;20183;-90
2021/01/15 13:57:49;;;;;;;22.63;8.83;;;-2.80;99.90;;;;;;4827447;29;20688;-90
2021/01/15 14:00:15;;;;;;;26.20;10.40;;;-3.60;99.90;;;;;;4849761;29;20191;-91
2021/01/15 14:02:45;;;;;;;30.07;11.33;;;-3.40;99.90;;;;;;4813403;29;20223;-92
2021/01/15 14:05:12;;;;;;;21.13;8.17;;;-2.10;99.90;;;;;;4817454;29;20198;-91
2021/01/15 14:07:39;;;;;;;19.77;8.77;;;-3.40;99.90;;;;;;4838325;29;20207;-90
2021/01/15 14:10:06;;;;;;;14.07;7.20;;;-2.90;99.90;;;;;;4815237;29;20195;-90
2021/01/15 14:12:32;;;;;;;15.23;7.80;;;-3.60;99.90;;;;;;4830446;29;20299;-90
2021/01/15 14:14:58;;;;;;;14.73;7.73;;;-3.50;99.90;;;;;;4824138;29;20203;-91
2021/01/15 14:17:24;;;;;;;17.33;7.53;;;-1.40;99.90;;;;;;4814294;29;20569;-88
2021/01/15 14:19:50;;;;;;;10.47;5.73;;;-3.70;99.90;;;;;;4830702;29;20229;-93
2021/01/15 14:22:16;;;;;;;17.97;7.23;;;-2.00;99.90;;;;;;4829144;29;20259;-90